sensor_id;sensor_type;location;lat;lon;timestamp;temperature;humidity
79439;DHT22;68889;48.232;10.110;2023-08-06T00:04:04;15.30;94.10
79439;DHT22;68889;48.232;10.110;2023-08-06T00:11:34;15.30;93.70
79439;DHT22;68889;48.232;10.110;2023-08-06T00:14:13;15.30;93.50
79439;DHT22;68889;48.232;10.110;2023-08-06T00:16:43;15.30;92.50
79439;DHT22;68889;48.232;10.110;2023-08-06T00:19:18;15.30;92.70
79439;DHT22;68889;48.232;10.110;2023-08-06T00:21:44;15.30;92.50
79439;DHT22;68889;48.232;10.110;2023-08-06T00:24:09;15.20;92.80
79439;DHT22;68889;48.232;10.110;2023-08-06T00:26:35;15.20;92.30
79439;DHT22;68889;48.232;10.110;2023-08-06T00:29:00;15.20;92.60
79439;DHT22;68889;48.232;10.110;2023-08-06T00:31:28;15.20;92.30
79439;DHT22;68889;48.232;10.110;2023-08-06T00:33:54;15.20;92.30
79439;DHT22;68889;48.232;10.110;2023-08-06T00:36:20;15.20;91.80
79439;DHT22;68889;48.232;10.110;2023-08-06T00:38:45;15.20;92.00
79439;DHT22;68889;48.232;10.110;2023-08-06T00:41:11;15.20;92.30
79439;DHT22;68889;48.232;10.110;2023-08-06T00:43:37;15.10;91.80
79439;DHT22;68889;48.232;10.110;2023-08-06T00:46:02;15.10;92.80
79439;DHT22;68889;48.232;10.110;2023-08-06T00:48:28;15.10;92.10
79439;DHT22;68889;48.232;10.110;2023-08-06T00:50:54;15.10;92.30
79439;DHT22;68889;48.232;10.110;2023-08-06T00:53:19;15.10;92.40
79439;DHT22;68889;48.232;10.110;2023-08-06T00:55:45;15.10;92.90
79439;DHT22;68889;48.232;10.110;2023-08-06T00:58:12;15.10;93.10
79439;DHT22;68889;48.232;10.110;2023-08-06T01:00:38;15.10;92.60
79439;DHT22;68889;48.232;10.110;2023-08-06T01:03:04;15.10;93.30
79439;DHT22;68889;48.232;10.110;2023-08-06T01:05:30;15.10;93.40
79439;DHT22;68889;48.232;10.110;2023-08-06T01:08:25;15.20;93.20
79439;DHT22;68889;48.232;10.110;2023-08-06T01:13:47;15.20;93.20
79439;DHT22;68889;48.232;10.110;2023-08-06T01:16:21;15.20;93.40
79439;DHT22;68889;48.232;10.110;2023-08-06T01:18:48;15.20;93.30
79439;DHT22;68889;48.232;10.110;2023-08-06T01:21:15;15.20;93.40
79439;DHT22;68889;48.232;10.110;2023-08-06T01:23:46;15.20;93.20
79439;DHT22;68889;48.232;10.110;2023-08-06T01:29:03;15.10;93.50
79439;DHT22;68889;48.232;10.110;2023-08-06T01:31:33;15.10;93.50
79439;DHT22;68889;48.232;10.110;2023-08-06T01:34:01;15.10;94.00
79439;DHT22;68889;48.232;10.110;2023-08-06T01:36:28;15.20;93.90
79439;DHT22;68889;48.232;10.110;2023-08-06T01:38:54;15.10;93.40
79439;DHT22;68889;48.232;10.110;2023-08-06T01:41:20;15.10;94.20
79439;DHT22;68889;48.232;10.110;2023-08-06T01:43:45;15.00;93.90
79439;DHT22;68889;48.232;10.110;2023-08-06T01:46:11;15.00;94.20
79439;DHT22;68889;48.232;10.110;2023-08-06T01:48:36;14.90;94.20
79439;DHT22;68889;48.232;10.110;2023-08-06T01:51:05;14.80;94.30
79439;DHT22;68889;48.232;10.110;2023-08-06T01:53:32;14.80;94.60
79439;DHT22;68889;48.232;10.110;2023-08-06T01:55:58;14.70;94.90
79439;DHT22;68889;48.232;10.110;2023-08-06T01:58:23;14.70;94.90
79439;DHT22;68889;48.232;10.110;2023-08-06T02:00:49;14.70;95.00
79439;DHT22;68889;48.232;10.110;2023-08-06T02:03:15;14.70;95.50
79439;DHT22;68889;48.232;10.110;2023-08-06T02:05:40;14.70;95.10
79439;DHT22;68889;48.232;10.110;2023-08-06T02:08:06;14.70;95.00
79439;DHT22;68889;48.232;10.110;2023-08-06T02:10:32;14.70;95.20
79439;DHT22;68889;48.232;10.110;2023-08-06T02:12:57;14.70;95.00
79439;DHT22;68889;48.232;10.110;2023-08-06T02:15:23;14.70;95.20
79439;DHT22;68889;48.232;10.110;2023-08-06T02:17:48;14.60;95.40
79439;DHT22;68889;48.232;10.110;2023-08-06T02:20:14;14.50;95.60
79439;DHT22;68889;48.232;10.110;2023-08-06T02:22:40;14.50;95.80
79439;DHT22;68889;48.232;10.110;2023-08-06T02:25:05;14.50;96.30
79439;DHT22;68889;48.232;10.110;2023-08-06T02:27:31;14.50;96.30
79439;DHT22;68889;48.232;10.110;2023-08-06T02:29:57;14.60;96.10
79439;DHT22;68889;48.232;10.110;2023-08-06T02:32:22;14.60;95.90
79439;DHT22;68889;48.232;10.110;2023-08-06T02:34:48;14.60;95.90
79439;DHT22;68889;48.232;10.110;2023-08-06T02:37:14;14.60;95.70
79439;DHT22;68889;48.232;10.110;2023-08-06T02:39:40;14.60;95.70
79439;DHT22;68889;48.232;10.110;2023-08-06T02:42:08;14.60;95.60
79439;DHT22;68889;48.232;10.110;2023-08-06T02:44:35;14.60;95.70
79439;DHT22;68889;48.232;10.110;2023-08-06T02:47:01;14.60;95.90
79439;DHT22;68889;48.232;10.110;2023-08-06T02:49:26;14.60;95.50
79439;DHT22;68889;48.232;10.110;2023-08-06T02:51:52;14.60;95.90
79439;DHT22;68889;48.232;10.110;2023-08-06T02:54:20;14.70;95.70
79439;DHT22;68889;48.232;10.110;2023-08-06T02:56:46;14.70;95.10
79439;DHT22;68889;48.232;10.110;2023-08-06T02:59:12;14.70;95.40
79439;DHT22;68889;48.232;10.110;2023-08-06T03:01:38;14.70;95.20
79439;DHT22;68889;48.232;10.110;2023-08-06T03:04:04;14.70;94.90
79439;DHT22;68889;48.232;10.110;2023-08-06T03:06:30;14.70;95.10
79439;DHT22;68889;48.232;10.110;2023-08-06T03:08:55;14.70;94.90
79439;DHT22;68889;48.232;10.110;2023-08-06T03:11:21;14.70;94.70
79439;DHT22;68889;48.232;10.110;2023-08-06T03:13:47;14.70;94.70
79439;DHT22;68889;48.232;10.110;2023-08-06T03:16:13;14.70;95.20
79439;DHT22;68889;48.232;10.110;2023-08-06T03:18:39;14.70;94.80
79439;DHT22;68889;48.232;10.110;2023-08-06T03:21:04;14.70;94.40
79439;DHT22;68889;48.232;10.110;2023-08-06T03:23:30;14.70;94.60
79439;DHT22;68889;48.232;10.110;2023-08-06T03:25:55;14.70;94.40
79439;DHT22;68889;48.232;10.110;2023-08-06T03:28:21;14.70;94.30
79439;DHT22;68889;48.232;10.110;2023-08-06T03:30:47;14.80;94.60
79439;DHT22;68889;48.232;10.110;2023-08-06T03:33:13;14.70;94.40
79439;DHT22;68889;48.232;10.110;2023-08-06T03:35:39;14.70;94.00
79439;DHT22;68889;48.232;10.110;2023-08-06T03:38:05;14.70;94.20
79439;DHT22;68889;48.232;10.110;2023-08-06T03:40:31;14.70;94.30
79439;DHT22;68889;48.232;10.110;2023-08-06T03:42:56;14.50;94.30
79439;DHT22;68889;48.232;10.110;2023-08-06T03:45:22;14.40;94.60
79439;DHT22;68889;48.232;10.110;2023-08-06T03:47:47;14.40;94.90
79439;DHT22;68889;48.232;10.110;2023-08-06T03:50:13;14.30;94.80
79439;DHT22;68889;48.232;10.110;2023-08-06T03:52:39;14.20;95.50
79439;DHT22;68889;48.232;10.110;2023-08-06T03:55:04;14.10;96.40
79439;DHT22;68889;48.232;10.110;2023-08-06T03:57:30;14.00;96.00
79439;DHT22;68889;48.232;10.110;2023-08-06T03:59:56;14.00;96.10
79439;DHT22;68889;48.232;10.110;2023-08-06T04:02:21;14.00;95.80
79439;DHT22;68889;48.232;10.110;2023-08-06T04:04:47;13.90;95.80
79439;DHT22;68889;48.232;10.110;2023-08-06T04:07:13;13.90;96.80
79439;DHT22;68889;48.232;10.110;2023-08-06T04:09:53;14.00;96.90
79439;DHT22;68889;48.232;10.110;2023-08-06T04:12:19;14.00;96.60
79439;DHT22;68889;48.232;10.110;2023-08-06T04:14:45;14.20;96.40
79439;DHT22;68889;48.232;10.110;2023-08-06T04:17:10;14.30;96.10
79439;DHT22;68889;48.232;10.110;2023-08-06T04:19:36;14.30;96.20
79439;DHT22;68889;48.232;10.110;2023-08-06T04:22:02;14.30;95.60
79439;DHT22;68889;48.232;10.110;2023-08-06T04:24:27;14.20;95.50
79439;DHT22;68889;48.232;10.110;2023-08-06T04:26:53;14.10;96.30
79439;DHT22;68889;48.232;10.110;2023-08-06T04:29:18;14.10;95.70
79439;DHT22;68889;48.232;10.110;2023-08-06T04:31:44;14.10;96.20
79439;DHT22;68889;48.232;10.110;2023-08-06T04:34:09;14.10;96.50
79439;DHT22;68889;48.232;10.110;2023-08-06T04:36:35;14.30;96.30
79439;DHT22;68889;48.232;10.110;2023-08-06T04:39:03;14.40;95.90
79439;DHT22;68889;48.232;10.110;2023-08-06T04:41:28;14.60;95.40
79439;DHT22;68889;48.232;10.110;2023-08-06T04:43:54;14.70;95.20
79439;DHT22;68889;48.232;10.110;2023-08-06T04:46:19;14.80;95.10
79439;DHT22;68889;48.232;10.110;2023-08-06T04:48:45;14.90;94.70
79439;DHT22;68889;48.232;10.110;2023-08-06T04:51:10;14.90;93.90
79439;DHT22;68889;48.232;10.110;2023-08-06T04:53:36;14.90;93.70
79439;DHT22;68889;48.232;10.110;2023-08-06T04:56:03;15.00;94.20
79439;DHT22;68889;48.232;10.110;2023-08-06T04:58:29;15.10;93.40
79439;DHT22;68889;48.232;10.110;2023-08-06T05:00:57;15.00;93.40
79439;DHT22;68889;48.232;10.110;2023-08-06T05:03:25;15.00;94.00
79439;DHT22;68889;48.232;10.110;2023-08-06T05:05:51;15.00;94.30
79439;DHT22;68889;48.232;10.110;2023-08-06T05:08:16;15.00;94.40
79439;DHT22;68889;48.232;10.110;2023-08-06T05:10:43;15.10;94.40
79439;DHT22;68889;48.232;10.110;2023-08-06T05:13:12;15.10;94.30
79439;DHT22;68889;48.232;10.110;2023-08-06T05:15:38;15.10;94.10
79439;DHT22;68889;48.232;10.110;2023-08-06T05:18:05;15.10;93.50
79439;DHT22;68889;48.232;10.110;2023-08-06T05:20:31;15.10;93.40
79439;DHT22;68889;48.232;10.110;2023-08-06T05:22:56;15.00;93.20
79439;DHT22;68889;48.232;10.110;2023-08-06T05:25:22;15.00;94.00
79439;DHT22;68889;48.232;10.110;2023-08-06T05:27:51;14.90;94.50
79439;DHT22;68889;48.232;10.110;2023-08-06T05:30:16;14.90;94.50
79439;DHT22;68889;48.232;10.110;2023-08-06T05:32:42;14.90;94.60
79439;DHT22;68889;48.232;10.110;2023-08-06T05:35:08;14.80;95.40
79439;DHT22;68889;48.232;10.110;2023-08-06T05:37:33;14.80;95.60
79439;DHT22;68889;48.232;10.110;2023-08-06T05:39:59;14.80;96.20
79439;DHT22;68889;48.232;10.110;2023-08-06T05:42:24;14.80;95.50
79439;DHT22;68889;48.232;10.110;2023-08-06T05:44:50;14.80;96.00
79439;DHT22;68889;48.232;10.110;2023-08-06T05:47:16;14.70;95.60
79439;DHT22;68889;48.232;10.110;2023-08-06T05:49:41;14.70;96.00
79439;DHT22;68889;48.232;10.110;2023-08-06T05:52:07;14.70;95.40
79439;DHT22;68889;48.232;10.110;2023-08-06T05:54:33;14.60;95.70
79439;DHT22;68889;48.232;10.110;2023-08-06T05:56:59;14.70;95.30
79439;DHT22;68889;48.232;10.110;2023-08-06T05:59:24;14.60;96.40
79439;DHT22;68889;48.232;10.110;2023-08-06T06:01:50;14.70;96.30
79439;DHT22;68889;48.232;10.110;2023-08-06T06:04:15;14.70;96.40
79439;DHT22;68889;48.232;10.110;2023-08-06T06:06:41;14.70;95.20
79439;DHT22;68889;48.232;10.110;2023-08-06T06:09:07;14.70;95.80
79439;DHT22;68889;48.232;10.110;2023-08-06T06:11:36;14.80;94.90
79439;DHT22;68889;48.232;10.110;2023-08-06T06:14:01;14.90;95.30
79439;DHT22;68889;48.232;10.110;2023-08-06T06:16:27;14.90;95.60
79439;DHT22;68889;48.232;10.110;2023-08-06T06:18:52;15.00;95.50
79439;DHT22;68889;48.232;10.110;2023-08-06T06:21:20;15.00;94.50
79439;DHT22;68889;48.232;10.110;2023-08-06T06:23:45;15.00;95.00
79439;DHT22;68889;48.232;10.110;2023-08-06T06:26:11;15.00;94.10
79439;DHT22;68889;48.232;10.110;2023-08-06T06:28:38;15.00;94.60
79439;DHT22;68889;48.232;10.110;2023-08-06T06:31:04;14.90;93.60
79439;DHT22;68889;48.232;10.110;2023-08-06T06:33:29;14.90;93.80
79439;DHT22;68889;48.232;10.110;2023-08-06T06:35:55;14.90;95.30
79439;DHT22;68889;48.232;10.110;2023-08-06T06:38:21;15.00;94.70
79439;DHT22;68889;48.232;10.110;2023-08-06T06:41:01;15.20;95.20
79439;DHT22;68889;48.232;10.110;2023-08-06T06:43:28;15.40;94.40
79439;DHT22;68889;48.232;10.110;2023-08-06T06:45:58;15.70;93.40
79439;DHT22;68889;48.232;10.110;2023-08-06T06:48:25;15.90;91.50
79439;DHT22;68889;48.232;10.110;2023-08-06T06:50:51;16.00;91.70
79439;DHT22;68889;48.232;10.110;2023-08-06T06:53:16;16.10;91.20
79439;DHT22;68889;48.232;10.110;2023-08-06T06:55:42;16.10;91.40
79439;DHT22;68889;48.232;10.110;2023-08-06T06:58:08;16.20;89.20
79439;DHT22;68889;48.232;10.110;2023-08-06T07:00:36;16.10;89.10
79439;DHT22;68889;48.232;10.110;2023-08-06T07:03:02;16.10;89.80
79439;DHT22;68889;48.232;10.110;2023-08-06T07:05:27;16.10;89.30
79439;DHT22;68889;48.232;10.110;2023-08-06T07:07:53;16.10;88.80
79439;DHT22;68889;48.232;10.110;2023-08-06T07:10:19;16.10;85.90
79439;DHT22;68889;48.232;10.110;2023-08-06T07:12:44;16.20;87.10
79439;DHT22;68889;48.232;10.110;2023-08-06T07:15:10;16.40;87.20
79439;DHT22;68889;48.232;10.110;2023-08-06T07:17:37;16.50;86.30
79439;DHT22;68889;48.232;10.110;2023-08-06T07:20:03;16.60;85.50
79439;DHT22;68889;48.232;10.110;2023-08-06T07:22:29;16.60;85.40
79439;DHT22;68889;48.232;10.110;2023-08-06T07:24:55;16.50;86.70
79439;DHT22;68889;48.232;10.110;2023-08-06T07:27:24;16.40;87.30
79439;DHT22;68889;48.232;10.110;2023-08-06T07:29:50;16.40;86.30
79439;DHT22;68889;48.232;10.110;2023-08-06T07:32:19;16.30;85.90
79439;DHT22;68889;48.232;10.110;2023-08-06T07:34:48;16.40;87.50
79439;DHT22;68889;48.232;10.110;2023-08-06T07:37:17;16.50;85.60
79439;DHT22;68889;48.232;10.110;2023-08-06T07:39:43;16.60;84.80
79439;DHT22;68889;48.232;10.110;2023-08-06T08:23:28;17.20;80.00
79439;DHT22;68889;48.232;10.110;2023-08-06T08:25:54;17.10;80.60
79439;DHT22;68889;48.232;10.110;2023-08-06T08:28:20;17.10;80.80
79439;DHT22;68889;48.232;10.110;2023-08-06T08:30:47;17.10;80.70
79439;DHT22;68889;48.232;10.110;2023-08-06T08:33:13;17.10;81.50
79439;DHT22;68889;48.232;10.110;2023-08-06T08:35:39;17.20;82.50
79439;DHT22;68889;48.232;10.110;2023-08-06T08:38:05;17.20;82.10
79439;DHT22;68889;48.232;10.110;2023-08-06T08:40:36;17.10;83.70
79439;DHT22;68889;48.232;10.110;2023-08-06T08:43:03;17.00;81.80
79439;DHT22;68889;48.232;10.110;2023-08-06T08:45:30;16.90;83.20
79439;DHT22;68889;48.232;10.110;2023-08-06T08:47:56;16.70;83.30
79439;DHT22;68889;48.232;10.110;2023-08-06T08:50:29;16.50;85.50
79439;DHT22;68889;48.232;10.110;2023-08-06T08:52:56;16.50;86.70
79439;DHT22;68889;48.232;10.110;2023-08-06T08:55:24;16.60;86.50
79439;DHT22;68889;48.232;10.110;2023-08-06T08:57:50;16.60;85.60
79439;DHT22;68889;48.232;10.110;2023-08-06T09:00:16;16.60;85.20
79439;DHT22;68889;48.232;10.110;2023-08-06T09:02:46;16.50;85.20
79439;DHT22;68889;48.232;10.110;2023-08-06T09:05:13;16.50;85.40
79439;DHT22;68889;48.232;10.110;2023-08-06T09:08:08;16.50;84.60
79439;DHT22;68889;48.232;10.110;2023-08-06T09:16:05;16.60;83.20
79439;DHT22;68889;48.232;10.110;2023-08-06T09:18:31;16.70;85.40
79439;DHT22;68889;48.232;10.110;2023-08-06T09:20:57;17.10;85.20
79439;DHT22;68889;48.232;10.110;2023-08-06T09:23:32;17.20;84.50
79439;DHT22;68889;48.232;10.110;2023-08-06T09:25:59;17.10;83.20
79439;DHT22;68889;48.232;10.110;2023-08-06T09:28:30;17.00;84.30
79439;DHT22;68889;48.232;10.110;2023-08-06T09:31:09;16.80;83.40
79439;DHT22;68889;48.232;10.110;2023-08-06T09:33:38;16.50;85.10
79439;DHT22;68889;48.232;10.110;2023-08-06T09:36:10;16.10;86.10
79439;DHT22;68889;48.232;10.110;2023-08-06T09:38:40;15.80;88.00
79439;DHT22;68889;48.232;10.110;2023-08-06T09:41:08;15.50;89.80
79439;DHT22;68889;48.232;10.110;2023-08-06T09:43:41;15.40;90.30
79439;DHT22;68889;48.232;10.110;2023-08-06T09:46:16;15.20;90.80
79439;DHT22;68889;48.232;10.110;2023-08-06T09:48:48;15.10;90.80
79439;DHT22;68889;48.232;10.110;2023-08-06T09:51:17;15.00;91.60
79439;DHT22;68889;48.232;10.110;2023-08-06T09:53:45;15.00;92.50
79439;DHT22;68889;48.232;10.110;2023-08-06T09:56:15;15.20;93.40
79439;DHT22;68889;48.232;10.110;2023-08-06T09:58:43;15.40;90.20
79439;DHT22;68889;48.232;10.110;2023-08-06T10:01:11;15.50;91.50
79439;DHT22;68889;48.232;10.110;2023-08-06T10:03:39;15.50;90.30
79439;DHT22;68889;48.232;10.110;2023-08-06T10:06:05;15.50;91.70
79439;DHT22;68889;48.232;10.110;2023-08-06T10:08:33;15.70;89.50
79439;DHT22;68889;48.232;10.110;2023-08-06T10:11:03;15.90;91.60
79439;DHT22;68889;48.232;10.110;2023-08-06T10:13:33;15.90;88.80
79439;DHT22;68889;48.232;10.110;2023-08-06T10:16:01;15.80;89.80
79439;DHT22;68889;48.232;10.110;2023-08-06T10:18:28;15.60;89.60
79439;DHT22;68889;48.232;10.110;2023-08-06T10:20:55;15.60;91.60
79439;DHT22;68889;48.232;10.110;2023-08-06T10:26:27;15.80;91.60
79439;DHT22;68889;48.232;10.110;2023-08-06T10:28:53;15.90;90.10
79439;DHT22;68889;48.232;10.110;2023-08-06T10:32:05;15.90;90.30
79439;DHT22;68889;48.232;10.110;2023-08-06T10:34:07;15.90;89.40
79439;DHT22;68889;48.232;10.110;2023-08-06T10:36:33;16.20;91.70
79439;DHT22;68889;48.232;10.110;2023-08-06T10:38:58;16.80;93.10
79439;DHT22;68889;48.232;10.110;2023-08-06T10:41:28;17.30;88.80
79439;DHT22;68889;48.232;10.110;2023-08-06T10:44:08;17.50;87.70
79439;DHT22;68889;48.232;10.110;2023-08-06T10:46:35;17.40;86.60
79439;DHT22;68889;48.232;10.110;2023-08-06T10:49:02;17.20;87.80
79439;DHT22;68889;48.232;10.110;2023-08-06T10:51:28;17.20;87.60
79439;DHT22;68889;48.232;10.110;2023-08-06T10:53:54;17.40;86.10
79439;DHT22;68889;48.232;10.110;2023-08-06T10:56:24;17.70;87.80
79439;DHT22;68889;48.232;10.110;2023-08-06T10:58:53;17.90;85.20
79439;DHT22;68889;48.232;10.110;2023-08-06T11:01:19;18.20;85.40
79439;DHT22;68889;48.232;10.110;2023-08-06T11:03:47;18.30;83.80
79439;DHT22;68889;48.232;10.110;2023-08-06T11:06:19;18.30;83.00
79439;DHT22;68889;48.232;10.110;2023-08-06T11:08:52;18.20;81.90
79439;DHT22;68889;48.232;10.110;2023-08-06T11:11:19;17.90;83.60
79439;DHT22;68889;48.232;10.110;2023-08-06T11:13:46;17.90;84.30
79439;DHT22;68889;48.232;10.110;2023-08-06T11:16:22;17.70;83.60
79439;DHT22;68889;48.232;10.110;2023-08-06T11:18:51;17.60;85.90
79439;DHT22;68889;48.232;10.110;2023-08-06T11:21:21;17.50;86.40
79439;DHT22;68889;48.232;10.110;2023-08-06T11:23:51;17.20;86.30
79439;DHT22;68889;48.232;10.110;2023-08-06T11:26:20;16.80;87.60
79439;DHT22;68889;48.232;10.110;2023-08-06T11:28:46;16.30;88.60
79439;DHT22;68889;48.232;10.110;2023-08-06T11:31:21;15.90;90.20
79439;DHT22;68889;48.232;10.110;2023-08-06T11:33:49;15.50;92.30
79439;DHT22;68889;48.232;10.110;2023-08-06T11:36:15;15.30;93.60
79439;DHT22;68889;48.232;10.110;2023-08-06T11:38:41;15.20;94.00
79439;DHT22;68889;48.232;10.110;2023-08-06T11:41:07;15.10;94.30
79439;DHT22;68889;48.232;10.110;2023-08-06T11:43:32;15.10;94.80
79439;DHT22;68889;48.232;10.110;2023-08-06T11:45:58;15.10;94.40
79439;DHT22;68889;48.232;10.110;2023-08-06T11:48:25;15.20;94.80
79439;DHT22;68889;48.232;10.110;2023-08-06T11:50:54;15.30;92.80
79439;DHT22;68889;48.232;10.110;2023-08-06T11:53:20;15.40;93.80
79439;DHT22;68889;48.232;10.110;2023-08-06T11:55:45;15.50;93.70
79439;DHT22;68889;48.232;10.110;2023-08-06T11:58:11;15.60;93.80
79439;DHT22;68889;48.232;10.110;2023-08-06T12:00:37;15.80;93.00
79439;DHT22;68889;48.232;10.110;2023-08-06T12:03:04;15.90;91.90
79439;DHT22;68889;48.232;10.110;2023-08-06T12:05:33;16.00;92.40
79439;DHT22;68889;48.232;10.110;2023-08-06T12:08:01;16.10;92.90
79439;DHT22;68889;48.232;10.110;2023-08-06T12:10:29;16.40;90.90
79439;DHT22;68889;48.232;10.110;2023-08-06T12:12:55;16.50;90.10
79439;DHT22;68889;48.232;10.110;2023-08-06T12:15:24;16.60;90.20
79439;DHT22;68889;48.232;10.110;2023-08-06T12:17:49;16.80;90.50
79439;DHT22;68889;48.232;10.110;2023-08-06T12:20:15;16.80;89.20
79439;DHT22;68889;48.232;10.110;2023-08-06T12:22:41;17.00;90.80
79439;DHT22;68889;48.232;10.110;2023-08-06T12:25:08;17.00;88.80
79439;DHT22;68889;48.232;10.110;2023-08-06T12:27:47;16.80;88.20
79439;DHT22;68889;48.232;10.110;2023-08-06T12:30:15;16.70;89.50
79439;DHT22;68889;48.232;10.110;2023-08-06T12:32:41;16.50;89.00
79439;DHT22;68889;48.232;10.110;2023-08-06T12:35:16;16.40;89.50
79439;DHT22;68889;48.232;10.110;2023-08-06T12:37:43;16.40;91.90
79439;DHT22;68889;48.232;10.110;2023-08-06T12:40:16;16.40;90.90
79439;DHT22;68889;48.232;10.110;2023-08-06T12:42:41;16.40;90.20
79439;DHT22;68889;48.232;10.110;2023-08-06T12:45:14;16.30;92.20
79439;DHT22;68889;48.232;10.110;2023-08-06T12:47:39;16.30;90.90
79439;DHT22;68889;48.232;10.110;2023-08-06T12:50:06;16.20;90.80
79439;DHT22;68889;48.232;10.110;2023-08-06T12:52:33;16.00;92.70
79439;DHT22;68889;48.232;10.110;2023-08-06T12:55:03;15.80;92.10
79439;DHT22;68889;48.232;10.110;2023-08-06T12:57:28;15.70;93.10
79439;DHT22;68889;48.232;10.110;2023-08-06T12:59:55;15.50;93.30
79439;DHT22;68889;48.232;10.110;2023-08-06T13:02:20;15.30;93.90
79439;DHT22;68889;48.232;10.110;2023-08-06T13:04:46;15.20;94.60
79439;DHT22;68889;48.232;10.110;2023-08-06T13:07:14;15.00;95.30
79439;DHT22;68889;48.232;10.110;2023-08-06T13:09:40;14.90;96.40
79439;DHT22;68889;48.232;10.110;2023-08-06T13:12:06;14.90;96.50
79439;DHT22;68889;48.232;10.110;2023-08-06T13:14:31;14.80;97.20
79439;DHT22;68889;48.232;10.110;2023-08-06T13:17:02;14.80;96.90
79439;DHT22;68889;48.232;10.110;2023-08-06T13:19:32;14.80;97.10
79439;DHT22;68889;48.232;10.110;2023-08-06T13:22:04;14.80;97.00
79439;DHT22;68889;48.232;10.110;2023-08-06T13:24:32;15.00;98.50
79439;DHT22;68889;48.232;10.110;2023-08-06T13:26:58;15.20;97.80
79439;DHT22;68889;48.232;10.110;2023-08-06T13:29:25;15.40;96.30
79439;DHT22;68889;48.232;10.110;2023-08-06T13:31:50;15.50;96.90
79439;DHT22;68889;48.232;10.110;2023-08-06T13:34:16;15.70;95.90
79439;DHT22;68889;48.232;10.110;2023-08-06T13:36:43;15.90;95.60
79439;DHT22;68889;48.232;10.110;2023-08-06T13:39:10;16.10;94.10
79439;DHT22;68889;48.232;10.110;2023-08-06T13:41:37;16.40;93.90
79439;DHT22;68889;48.232;10.110;2023-08-06T13:44:07;16.80;91.20
79439;DHT22;68889;48.232;10.110;2023-08-06T13:46:35;17.10;88.90
79439;DHT22;68889;48.232;10.110;2023-08-06T13:49:02;17.40;87.30
79439;DHT22;68889;48.232;10.110;2023-08-06T13:51:27;17.50;85.80
79439;DHT22;68889;48.232;10.110;2023-08-06T13:53:54;17.50;86.60
79439;DHT22;68889;48.232;10.110;2023-08-06T13:56:20;17.50;85.70
79439;DHT22;68889;48.232;10.110;2023-08-06T13:58:45;17.60;85.80
79439;DHT22;68889;48.232;10.110;2023-08-06T14:01:13;17.60;86.50
79439;DHT22;68889;48.232;10.110;2023-08-06T14:03:38;17.40;84.00
79439;DHT22;68889;48.232;10.110;2023-08-06T14:06:04;17.30;87.20
79439;DHT22;68889;48.232;10.110;2023-08-06T14:08:29;17.60;86.90
79439;DHT22;68889;48.232;10.110;2023-08-06T14:10:55;17.80;83.50
79439;DHT22;68889;48.232;10.110;2023-08-06T14:13:22;17.80;83.60
79439;DHT22;68889;48.232;10.110;2023-08-06T14:15:50;17.80;82.70
79439;DHT22;68889;48.232;10.110;2023-08-06T14:18:16;17.80;82.90
79439;DHT22;68889;48.232;10.110;2023-08-06T14:20:42;17.70;82.50
79439;DHT22;68889;48.232;10.110;2023-08-06T14:23:08;17.60;84.50
79439;DHT22;68889;48.232;10.110;2023-08-06T14:25:33;17.60;83.80
79439;DHT22;68889;48.232;10.110;2023-08-06T14:27:59;17.60;81.10
79439;DHT22;68889;48.232;10.110;2023-08-06T14:30:25;17.50;82.50
79439;DHT22;68889;48.232;10.110;2023-08-06T14:32:51;17.40;80.90
79439;DHT22;68889;48.232;10.110;2023-08-06T14:35:16;17.40;80.90
79439;DHT22;68889;48.232;10.110;2023-08-06T14:37:44;17.40;82.30
79439;DHT22;68889;48.232;10.110;2023-08-06T14:40:11;17.50;82.50
79439;DHT22;68889;48.232;10.110;2023-08-06T14:42:37;17.70;80.60
79439;DHT22;68889;48.232;10.110;2023-08-06T14:45:04;17.70;80.20
79439;DHT22;68889;48.232;10.110;2023-08-06T14:47:30;17.90;79.80
79439;DHT22;68889;48.232;10.110;2023-08-06T14:50:00;17.90;79.30
79439;DHT22;68889;48.232;10.110;2023-08-06T14:52:26;17.90;78.80
79439;DHT22;68889;48.232;10.110;2023-08-06T14:54:52;18.00;79.00
79439;DHT22;68889;48.232;10.110;2023-08-06T14:57:21;18.20;79.80
79439;DHT22;68889;48.232;10.110;2023-08-06T14:59:47;18.40;80.70
79439;DHT22;68889;48.232;10.110;2023-08-06T15:02:13;18.70;78.70
79439;DHT22;68889;48.232;10.110;2023-08-06T15:04:38;18.90;77.50
79439;DHT22;68889;48.232;10.110;2023-08-06T15:07:04;18.80;76.90
79439;DHT22;68889;48.232;10.110;2023-08-06T15:09:31;18.80;76.20
79439;DHT22;68889;48.232;10.110;2023-08-06T15:12:01;18.80;77.90
79439;DHT22;68889;48.232;10.110;2023-08-06T15:14:28;19.00;78.50
79439;DHT22;68889;48.232;10.110;2023-08-06T15:16:53;19.30;76.00
79439;DHT22;68889;48.232;10.110;2023-08-06T15:19:22;19.60;74.30
79439;DHT22;68889;48.232;10.110;2023-08-06T15:21:47;19.60;73.00
79439;DHT22;68889;48.232;10.110;2023-08-06T15:24:13;19.30;72.90
79439;DHT22;68889;48.232;10.110;2023-08-06T15:26:38;19.30;75.90
79439;DHT22;68889;48.232;10.110;2023-08-06T15:29:04;19.80;75.90
79439;DHT22;68889;48.232;10.110;2023-08-06T15:31:37;20.00;72.80
79439;DHT22;68889;48.232;10.110;2023-08-06T15:34:06;20.20;68.70
79439;DHT22;68889;48.232;10.110;2023-08-06T15:36:33;20.00;70.60
79439;DHT22;68889;48.232;10.110;2023-08-06T15:38:59;20.10;69.70
79439;DHT22;68889;48.232;10.110;2023-08-06T15:41:25;20.10;69.20
79439;DHT22;68889;48.232;10.110;2023-08-06T15:43:51;20.20;72.30
79439;DHT22;68889;48.232;10.110;2023-08-06T15:46:16;20.20;68.80
79439;DHT22;68889;48.232;10.110;2023-08-06T15:48:42;20.10;68.30
79439;DHT22;68889;48.232;10.110;2023-08-06T15:51:07;19.80;70.50
79439;DHT22;68889;48.232;10.110;2023-08-06T15:53:33;19.30;70.00
79439;DHT22;68889;48.232;10.110;2023-08-06T15:55:59;18.70;72.00
79439;DHT22;68889;48.232;10.110;2023-08-06T15:58:25;18.30;73.40
79439;DHT22;68889;48.232;10.110;2023-08-06T16:00:50;17.70;74.30
79439;DHT22;68889;48.232;10.110;2023-08-06T16:03:17;17.40;74.80
79439;DHT22;68889;48.232;10.110;2023-08-06T16:05:43;17.10;78.20
79439;DHT22;68889;48.232;10.110;2023-08-06T16:08:09;17.00;76.80
79439;DHT22;68889;48.232;10.110;2023-08-06T16:10:35;16.90;76.10
79439;DHT22;68889;48.232;10.110;2023-08-06T16:13:00;16.80;76.40
79439;DHT22;68889;48.232;10.110;2023-08-06T16:15:28;16.70;77.00
79439;DHT22;68889;48.232;10.110;2023-08-06T16:17:56;16.70;76.40